Benton Harbor, MI

3:34 PM EST on January 26, 2015 (GMT -0500)
South Haven | Change Station
CLOSE
Current Station
Airport
Location: South Haven,
Elevation: 666 ft
Nearby Weather Stations

Elev 666 ft 42.35 °N, 86.26 °W | Updated 20 minutes ago

Overcast
Overcast
25 °F
Feels Like 25 °F
N
0
Wind Variable Wind from North

Today
High -- | Low -- °F
--% Chance of Precip.
Yesterday
High -- | Low -- °F
Precip. -- in
8:04 AM 5:52 PM
Waxing Crescent, 46% visible
Pressure 29.90 in
Visibility 10.0 miles
Clouds Scattered Clouds 9000 ft
Overcast 12000 ft
Dew Point 11 °F
Humidity 54%
Rainfall 0.00 in
Snow Depth Not available.
UV 1 out of 12
Pollen .10 out of 12
Air Quality Not available.
Flu Activity Not available.
METAR KLWA 262014Z AUTO 00000KT 10SM SCT090 OVC120 M04/M12 A2990 RMK AO2 T10371119

More Conditions Fewer Conditions

Pressure 29.90 in
Visibility 10.0 miles
Clouds Scattered Clouds 9000 ft
Overcast 12000 ft
Dew Point 11 °F
Humidity 54%
Rainfall 0.00 in
Snow Depth Not available.
UV 1 out of 12
Pollen .10 out of 12
Air Quality Not available.
Flu Activity Not available.
METAR KLWA 262014Z AUTO 00000KT 10SM SCT090 OVC120 M04/M12 A2990 RMK AO2 T10371119

More Conditions Fewer Conditions

10-Day Weather Forecast

Almanac

Astronomy

Jan. 26, 2015 Rise Set
Actual Time
Civil Twilight
Nautical Twilight
Astronomical Twilight
Moon
Length of Visible Light
Length of Day
Tomorrow will be .
, % of the Moon is Illuminated

Today's Extremes

State Highs State Lows

Community

WunderPhotos

Upload Photos

1,790,349 photos uploaded!

WunderBlogs® & News

Nearby

Air Quality

  Air Quality AQ Index Pollutant
Not available.

Snow Depth

Station Depth Elevation

Earthquake Activity

City Distance Mag. Time & Date
Minimum magnitude displayed is 2.5.

Coastal Water Temperatures

Place Temperature

Nearby Weather Stations